Time;durP1;ratioP1;P1;durP2;ratioP2;P2;SDS_P1;SDS_P2;PMS_P1;PMS_P2;Temp;Humidity;BMP_temperature;BMP_pressure;BME280_temperature;BME280_humidity;BME280_pressure;Samples;Min_cycle;Max_cycle;Signal;HPM_P1;HPM_P2
2022/12/02 00:00:14;;;;;;;37.78;23.10;;;25.50;99.90;;;;;;5053684;28;20031;-65
2022/12/02 00:02:41;;;;;;;36.97;23.05;;;25.50;99.90;;;;;;5053375;28;20478;-65
2022/12/02 00:07:39;;;;;;;34.83;18.00;;;25.50;99.90;;;;;;5053430;28;20048;-65
2022/12/02 00:10:11;;;;;;;31.63;17.23;;;25.50;99.90;;;;;;5053287;28;20029;-65
2022/12/02 00:12:37;;;;;;;26.17;16.50;;;25.50;99.90;;;;;;5053423;28;20021;-65
2022/12/02 00:15:26;;;;;;;33.40;15.15;;;25.40;99.90;;;;;;5053371;28;20033;-64
2022/12/02 00:17:52;;;;;;;24.17;15.43;;;25.40;99.90;;;;;;5053315;28;20048;-65
2022/12/02 00:20:19;;;;;;;27.10;16.52;;;25.50;99.90;;;;;;5053608;28;20021;-64
2022/12/02 00:22:45;;;;;;;22.50;15.05;;;25.50;99.90;;;;;;5053214;28;20032;-64
2022/12/02 00:25:12;;;;;;;27.13;14.43;;;25.50;99.90;;;;;;5053287;28;20473;-65
2022/12/02 00:27:38;;;;;;;30.25;15.15;;;25.60;99.90;;;;;;5053170;28;20029;-65
2022/12/02 00:30:05;;;;;;;28.98;18.23;;;25.70;99.90;;;;;;5053202;28;20014;-64
2022/12/02 00:32:32;;;;;;;23.15;12.15;;;25.70;99.90;;;;;;5053482;28;20029;-64
2022/12/02 00:37:27;;;;;;;27.33;13.10;;;25.80;99.90;;;;;;5053401;28;20028;-65
2022/12/02 00:39:54;;;;;;;21.33;10.93;;;25.80;99.90;;;;;;5053226;28;20525;-66
2022/12/02 00:42:20;;;;;;;23.25;10.35;;;25.90;99.90;;;;;;5054089;28;20413;-66
2022/12/02 00:47:16;;;;;;;19.17;10.23;;;26.00;99.90;;;;;;5052952;28;20017;-64
2022/12/02 00:49:43;;;;;;;18.02;10.45;;;26.00;99.90;;;;;;5052980;28;20079;-65
2022/12/02 00:52:09;;;;;;;18.15;11.90;;;26.10;99.90;;;;;;5052867;28;20076;-64
2022/12/02 00:54:36;;;;;;;22.45;15.82;;;26.20;99.90;;;;;;5053033;28;20079;-65
2022/12/02 00:57:02;;;;;;;17.23;9.68;;;26.30;99.90;;;;;;5052949;28;20108;-65
2022/12/02 00:59:28;;;;;;;12.98;9.82;;;26.30;99.90;;;;;;5052842;28;20103;-65
2022/12/02 01:01:55;;;;;;;15.50;10.05;;;26.30;99.90;;;;;;5052644;28;20094;-64
2022/12/02 01:04:22;;;;;;;17.58;9.23;;;26.30;99.90;;;;;;5052877;28;20075;-63
2022/12/02 01:06:48;;;;;;;14.07;9.00;;;26.40;99.90;;;;;;5053005;28;20044;-64
2022/12/02 01:09:14;;;;;;;15.80;9.30;;;26.40;99.90;;;;;;5052936;28;20070;-63
2022/12/02 01:11:41;;;;;;;16.73;8.63;;;26.40;99.90;;;;;;5053466;28;20033;-64
2022/12/02 01:14:07;;;;;;;18.10;10.27;;;26.40;99.90;;;;;;5053349;28;20481;-64
2022/12/02 01:16:34;;;;;;;13.63;9.27;;;26.50;99.90;;;;;;5053220;28;20123;-65
2022/12/02 01:19:00;;;;;;;21.65;10.63;;;26.50;99.90;;;;;;5053207;28;20115;-65
2022/12/02 01:21:27;;;;;;;20.25;12.32;;;26.50;99.90;;;;;;5053287;28;20075;-65
2022/12/02 01:23:54;;;;;;;24.00;12.63;;;26.60;99.90;;;;;;5053201;28;20033;-65
2022/12/02 01:26:20;;;;;;;21.88;10.50;;;26.70;99.90;;;;;;5053412;28;20129;-66
2022/12/02 01:28:47;;;;;;;37.17;25.88;;;26.70;99.90;;;;;;5053240;28;20028;-66
2022/12/02 01:31:16;;;;;;;18.63;10.32;;;26.70;99.90;;;;;;5052948;28;20033;-66
2022/12/02 01:33:42;;;;;;;54.05;40.30;;;26.80;99.90;;;;;;5053135;28;20052;-66
2022/12/02 01:36:09;;;;;;;24.30;16.48;;;26.80;99.90;;;;;;5053204;28;20035;-64
2022/12/02 01:38:35;;;;;;;18.10;13.02;;;26.90;99.90;;;;;;5052986;28;20382;-65
2022/12/02 01:41:02;;;;;;;14.95;10.32;;;26.90;99.90;;;;;;5053846;28;20025;-65
2022/12/02 01:43:29;;;;;;;15.20;10.00;;;27.00;99.90;;;;;;5053787;28;20025;-65
2022/12/02 01:45:56;;;;;;;20.73;12.85;;;26.90;99.90;;;;;;5054803;28;20527;-65
2022/12/02 01:48:22;;;;;;;16.42;10.57;;;26.90;99.90;;;;;;5056570;28;20037;-66
2022/12/02 01:50:50;;;;;;;24.58;12.43;;;26.90;99.90;;;;;;5056009;28;20381;-69
2022/12/02 01:53:16;;;;;;;18.83;12.35;;;27.00;99.90;;;;;;5055934;28;20025;-69
2022/12/02 01:55:43;;;;;;;23.08;15.38;;;27.00;99.90;;;;;;5055820;28;20052;-68
2022/12/02 01:58:12;;;;;;;18.38;12.38;;;27.00;99.90;;;;;;5055680;28;20021;-68
2022/12/02 02:00:39;;;;;;;16.23;11.35;;;27.10;99.90;;;;;;5055518;28;20432;-70
2022/12/02 02:03:06;;;;;;;21.35;14.73;;;27.20;99.90;;;;;;5055693;28;20051;-64
2022/12/02 02:05:33;;;;;;;19.90;11.15;;;27.30;99.90;;;;;;5055831;28;20013;-63
2022/12/02 02:08:06;;;;;;;16.23;11.60;;;27.30;99.90;;;;;;5055513;28;20458;-66
2022/12/02 02:10:34;;;;;;;15.95;10.20;;;27.40;99.90;;;;;;5055841;28;20066;-65
2022/12/02 02:13:01;;;;;;;27.50;21.10;;;27.50;99.90;;;;;;5055577;28;20533;-66
2022/12/02 02:15:27;;;;;;;17.27;9.70;;;27.50;99.90;;;;;;5055395;28;20021;-66
2022/12/02 02:17:57;;;;;;;34.10;22.63;;;27.50;99.90;;;;;;5055352;28;20048;-66
2022/12/02 02:20:25;;;;;;;14.50;9.75;;;27.60;99.90;;;;;;5055506;28;20108;-66
2022/12/02 02:25:29;;;;;;;13.20;8.95;;;27.60;99.90;;;;;;5055985;28;20029;-66
2022/12/02 02:27:58;;;;;;;16.63;9.60;;;27.70;99.90;;;;;;5054982;28;20029;-66
2022/12/02 02:30:27;;;;;;;15.02;10.38;;;27.70;99.90;;;;;;5054486;28;20036;-66
2022/12/02 02:32:55;;;;;;;13.15;8.60;;;27.70;99.90;;;;;;5055586;28;20389;-66
2022/12/02 02:35:21;;;;;;;22.67;10.68;;;27.80;99.90;;;;;;5054977;28;20025;-66
2022/12/02 02:37:50;;;;;;;19.50;9.80;;;27.90;99.90;;;;;;5054824;28;20024;-67
2022/12/02 02:40:19;;;;;;;24.35;10.00;;;28.00;99.90;;;;;;5055288;28;20048;-66
2022/12/02 02:42:53;;;;;;;14.35;9.13;;;28.10;99.90;;;;;;5054888;28;20078;-67
2022/12/02 02:45:23;;;;;;;16.40;9.88;;;28.20;99.90;;;;;;5055162;28;20189;-68
2022/12/02 02:47:51;;;;;;;11.52;8.73;;;28.20;99.90;;;;;;5055382;28;20029;-67
2022/12/02 02:50:18;;;;;;;13.80;8.73;;;28.20;99.90;;;;;;5054673;28;20485;-67
2022/12/02 02:52:45;;;;;;;14.20;9.27;;;28.20;99.90;;;;;;5054828;28;20098;-66
2022/12/02 02:55:19;;;;;;;13.35;9.55;;;28.20;99.90;;;;;;5054661;28;20031;-66
2022/12/02 02:57:47;;;;;;;16.17;9.30;;;28.20;99.90;;;;;;5054553;28;20031;-67
2022/12/02 03:00:14;;;;;;;12.07;9.30;;;28.20;99.90;;;;;;5054705;28;20020;-67
2022/12/02 03:02:42;;;;;;;17.67;9.45;;;28.20;99.90;;;;;;5054486;28;20044;-67
2022/12/02 03:05:09;;;;;;;15.95;9.65;;;28.20;99.90;;;;;;5054948;28;20086;-66
2022/12/02 03:07:36;;;;;;;13.73;9.07;;;28.20;99.90;;;;;;5054929;28;20100;-67
2022/12/02 03:10:04;;;;;;;14.75;10.07;;;28.20;99.90;;;;;;5054541;28;20035;-67
2022/12/02 03:12:31;;;;;;;31.35;20.75;;;28.30;99.90;;;;;;5053998;28;20057;-67
2022/12/02 03:14:59;;;;;;;15.68;10.38;;;28.40;99.90;;;;;;5054404;28;20017;-67
2022/12/02 03:17:25;;;;;;;15.30;11.27;;;28.40;99.90;;;;;;5054004;28;20108;-66
2022/12/02 03:19:52;;;;;;;17.52;12.07;;;28.50;99.90;;;;;;5053587;28;20037;-67
2022/12/02 03:22:19;;;;;;;18.50;11.82;;;28.50;99.90;;;;;;5054424;28;20028;-67
2022/12/02 03:24:45;;;;;;;17.85;10.32;;;28.70;99.90;;;;;;5054498;28;20104;-66
2022/12/02 03:27:13;;;;;;;18.90;9.02;;;28.70;99.90;;;;;;5054575;28;20071;-67
2022/12/02 03:32:10;;;;;;;9.98;8.38;;;28.80;99.90;;;;;;5053818;28;20070;-66
2022/12/02 03:34:38;;;;;;;10.45;8.60;;;28.80;99.90;;;;;;5053852;28;20061;-67
2022/12/02 03:37:05;;;;;;;10.25;8.00;;;28.90;99.90;;;;;;5053808;28;20039;-67
2022/12/02 03:39:31;;;;;;;12.20;8.85;;;29.00;99.90;;;;;;5053693;28;20112;-66
2022/12/02 03:41:58;;;;;;;8.77;7.38;;;28.90;99.90;;;;;;5053749;28;20473;-65
2022/12/02 03:44:24;;;;;;;11.07;8.38;;;29.10;99.90;;;;;;5054124;28;20050;-65
2022/12/02 03:46:51;;;;;;;9.57;6.25;;;29.00;99.90;;;;;;5053812;28;20074;-67
2022/12/02 03:49:18;;;;;;;9.32;7.60;;;29.10;99.90;;;;;;5054223;28;20108;-66
2022/12/02 03:51:46;;;;;;;13.30;8.05;;;29.10;99.90;;;;;;5053419;28;20033;-68
2022/12/02 03:54:13;;;;;;;10.13;8.88;;;29.10;99.90;;;;;;5052195;28;20052;-68
2022/12/02 03:56:41;;;;;;;13.52;8.52;;;29.10;99.90;;;;;;5053544;28;20455;-68
2022/12/02 03:59:09;;;;;;;9.35;8.35;;;29.10;99.90;;;;;;5053609;28;20075;-67
2022/12/02 04:01:39;;;;;;;12.27;8.48;;;29.10;99.90;;;;;;5053150;28;20473;-65
2022/12/02 04:04:06;;;;;;;15.25;9.57;;;29.10;99.90;;;;;;5053359;28;20493;-68
2022/12/02 04:06:32;;;;;;;8.82;7.63;;;29.20;99.90;;;;;;5053384;28;20032;-68
2022/12/02 04:08:59;;;;;;;11.43;7.32;;;29.20;99.90;;;;;;5052656;28;20500;-67
2022/12/02 04:11:25;;;;;;;11.25;7.75;;;29.30;99.90;;;;;;5053891;28;20028;-70
2022/12/02 04:13:52;;;;;;;14.65;8.13;;;29.40;99.90;;;;;;5053455;28;20032;-68
2022/12/02 04:16:18;;;;;;;15.13;7.75;;;29.40;99.90;;;;;;5053462;28;20021;-68
2022/12/02 04:18:45;;;;;;;11.52;7.32;;;29.40;99.90;;;;;;5053173;28;20059;-68
2022/12/02 04:21:11;;;;;;;19.60;12.65;;;29.40;99.90;;;;;;5048194;28;20017;-70
2022/12/02 04:23:38;;;;;;;18.83;10.88;;;29.50;99.90;;;;;;5043790;28;20075;-69
2022/12/02 04:26:04;;;;;;;45.47;32.45;;;29.50;99.90;;;;;;5042053;28;20099;-68
2022/12/02 04:28:31;;;;;;;23.27;11.85;;;29.50;99.90;;;;;;5040756;28;20032;-68
2022/12/02 04:30:57;;;;;;;32.30;23.45;;;29.50;99.90;;;;;;5035717;28;20428;-69
2022/12/02 04:33:24;;;;;;;23.70;15.23;;;29.50;99.90;;;;;;5040694;28;20033;-68
2022/12/02 04:35:50;;;;;;;23.13;15.80;;;29.50;99.90;;;;;;5044237;28;20500;-66
2022/12/02 04:38:17;;;;;;;21.38;14.70;;;29.50;99.90;;;;;;5048206;28;20033;-68
2022/12/02 04:40:43;;;;;;;19.48;14.57;;;29.50;99.90;;;;;;5043220;28;20409;-69
2022/12/02 04:43:10;;;;;;;14.13;8.07;;;29.50;99.90;;;;;;5041419;28;20132;-69
2022/12/02 04:48:06;;;;;;;13.80;8.02;;;29.60;99.90;;;;;;5045507;28;20033;-69
2022/12/02 04:50:33;;;;;;;17.55;13.32;;;29.60;99.90;;;;;;5048118;28;20071;-69
2022/12/02 04:52:59;;;;;;;16.55;11.10;;;29.50;99.90;;;;;;5047270;28;20029;-71
2022/12/02 04:55:26;;;;;;;15.05;9.13;;;29.60;99.90;;;;;;5042482;28;20039;-70
2022/12/02 04:57:52;;;;;;;12.10;8.35;;;29.60;99.90;;;;;;5040679;28;20059;-68
2022/12/02 05:00:20;;;;;;;12.00;6.85;;;29.60;99.90;;;;;;5042860;28;20017;-69
2022/12/02 05:02:46;;;;;;;10.35;7.10;;;29.70;99.90;;;;;;5042191;28;20028;-70
2022/12/02 05:05:12;;;;;;;8.48;6.65;;;29.70;99.90;;;;;;5040802;28;20061;-71
2022/12/02 05:07:39;;;;;;;11.50;6.80;;;29.80;99.90;;;;;;5042768;28;20066;-70
2022/12/02 05:10:06;;;;;;;14.02;8.07;;;29.90;99.90;;;;;;5042013;28;20370;-67
2022/12/02 05:12:33;;;;;;;9.43;7.22;;;29.90;99.90;;;;;;5038032;28;20025;-68
2022/12/02 05:14:59;;;;;;;8.75;5.97;;;30.00;99.90;;;;;;5036098;28;20025;-70
2022/12/02 05:17:26;;;;;;;14.77;5.80;;;30.00;99.90;;;;;;5035718;28;20099;-70
2022/12/02 05:19:52;;;;;;;8.95;5.88;;;30.00;99.90;;;;;;5025795;28;20360;-69
2022/12/02 05:22:19;;;;;;;6.75;6.00;;;30.00;99.90;;;;;;5022478;28;20111;-70
2022/12/02 05:24:47;;;;;;;13.18;6.43;;;30.00;99.90;;;;;;5029417;28;20417;-70
2022/12/02 05:27:14;;;;;;;9.70;6.57;;;30.10;99.90;;;;;;5030887;28;20033;-70
2022/12/02 05:29:40;;;;;;;8.55;5.80;;;30.20;99.90;;;;;;5025755;28;20021;-70
2022/12/02 05:32:06;;;;;;;10.40;6.07;;;30.30;99.90;;;;;;5025637;28;20036;-69
2022/12/02 05:34:33;;;;;;;11.85;6.70;;;30.40;99.90;;;;;;5026774;28;20130;-70
2022/12/02 05:36:59;;;;;;;8.68;6.68;;;30.40;99.90;;;;;;5025076;28;20056;-69
2022/12/02 05:39:26;;;;;;;10.82;7.10;;;30.40;99.90;;;;;;5025643;28;20068;-71
2022/12/02 05:41:59;;;;;;;8.35;5.88;;;30.50;99.90;;;;;;5026573;28;20136;-71
2022/12/02 05:44:28;;;;;;;8.40;5.78;;;30.50;99.90;;;;;;5026004;28;20026;-71
2022/12/02 05:47:01;;;;;;;12.32;6.32;;;30.50;99.90;;;;;;5033396;28;20022;-71
2022/12/02 05:49:30;;;;;;;9.73;5.95;;;30.60;99.90;;;;;;5036776;28;20029;-68
2022/12/02 05:52:00;;;;;;;11.02;8.77;;;30.60;99.90;;;;;;5036259;28;20390;-69
2022/12/02 05:54:28;;;;;;;8.45;7.00;;;30.70;99.90;;;;;;5036286;28;20156;-69
2022/12/02 05:56:56;;;;;;;10.43;6.78;;;30.70;99.90;;;;;;5036484;28;20159;-69
2022/12/02 05:59:23;;;;;;;15.55;9.05;;;30.70;99.90;;;;;;5036257;28;20449;-67
2022/12/02 06:01:53;;;;;;;7.78;5.43;;;30.80;99.90;;;;;;5035857;28;20025;-69
2022/12/02 06:04:26;;;;;;;10.35;5.55;;;30.90;99.90;;;;;;5036350;28;20462;-68
2022/12/02 06:06:54;;;;;;;11.75;5.65;;;31.00;99.90;;;;;;5035758;28;20044;-68
2022/12/02 06:09:26;;;;;;;52.05;42.35;;;31.00;99.90;;;;;;5033913;28;20374;-65
2022/12/02 06:11:53;;;;;;;12.07;9.43;;;31.10;99.90;;;;;;5035790;28;20044;-64
2022/12/02 06:14:27;;;;;;;18.95;10.38;;;31.10;99.90;;;;;;5035227;28;20087;-64
2022/12/02 06:16:59;;;;;;;10.23;6.93;;;31.20;99.90;;;;;;5035743;28;20029;-65
2022/12/02 06:19:37;;;;;;;9.45;6.32;;;31.20;99.90;;;;;;5051754;28;20053;-64
2022/12/02 06:22:09;;;;;;;11.40;7.00;;;31.10;99.90;;;;;;5055542;28;20105;-65
2022/12/02 06:24:38;;;;;;;12.60;7.30;;;31.00;99.90;;;;;;5055465;28;20013;-65
2022/12/02 06:27:04;;;;;;;6.00;4.82;;;31.00;99.90;;;;;;5055111;28;20047;-66
2022/12/02 06:29:32;;;;;;;11.25;6.18;;;30.90;99.90;;;;;;5055239;28;20117;-65
2022/12/02 06:31:59;;;;;;;12.95;6.28;;;31.00;99.90;;;;;;5054762;28;20032;-65
2022/12/02 06:34:30;;;;;;;13.63;6.53;;;31.10;99.90;;;;;;5055397;28;20082;-65
2022/12/02 06:36:59;;;;;;;11.85;6.88;;;31.10;99.90;;;;;;5055215;28;20108;-65
2022/12/02 06:39:25;;;;;;;7.00;3.95;;;31.20;99.90;;;;;;5055064;28;20029;-64
2022/12/02 06:41:53;;;;;;;10.88;5.13;;;31.20;99.90;;;;;;5054210;28;20029;-65
2022/12/02 06:46:51;;;;;;;7.93;4.28;;;31.00;99.90;;;;;;5053773;28;20021;-64
2022/12/02 06:49:22;;;;;;;8.13;5.20;;;31.10;99.90;;;;;;5055886;28;20385;-64
2022/12/02 06:51:59;;;;;;;14.60;7.13;;;31.10;99.90;;;;;;5055898;28;20017;-64
2022/12/02 06:54:29;;;;;;;18.58;9.60;;;31.20;99.90;;;;;;5055583;28;20040;-64
2022/12/02 06:56:58;;;;;;;10.57;5.90;;;31.30;99.90;;;;;;5055898;28;20474;-63
2022/12/02 06:59:26;;;;;;;17.17;7.82;;;31.30;99.90;;;;;;5046232;28;20107;-63
2022/12/02 07:01:59;;;;;;;9.60;6.60;;;31.30;99.90;;;;;;5043723;28;20021;-63
2022/12/02 07:04:33;;;;;;;12.68;6.28;;;31.40;99.90;;;;;;5044203;28;20040;-64
2022/12/02 07:07:11;;;;;;;10.85;6.25;;;31.40;99.90;;;;;;5046934;28;20025;-64
2022/12/02 07:09:42;;;;;;;77.22;58.28;;;31.40;99.90;;;;;;5054856;28;20457;-67
2022/12/02 07:12:18;;;;;;;64.10;32.78;;;31.40;99.90;;;;;;5046041;28;20108;-67
2022/12/02 07:14:47;;;;;;;15.90;9.48;;;31.40;99.90;;;;;;5043789;28;20029;-66
2022/12/02 07:17:18;;;;;;;18.58;7.10;;;31.50;99.90;;;;;;5042998;28;20025;-65
2022/12/02 07:19:47;;;;;;;6.88;4.90;;;31.50;99.90;;;;;;5045412;28;20289;-64
2022/12/02 07:22:21;;;;;;;7.60;4.88;;;31.50;99.90;;;;;;5050930;28;20025;-67
2022/12/02 07:24:57;;;;;;;18.38;9.15;;;31.50;99.90;;;;;;5044424;28;20441;-68
2022/12/02 07:27:30;;;;;;;11.07;7.05;;;31.50;99.90;;;;;;5044063;28;20431;-68
2022/12/02 07:29:57;;;;;;;43.65;22.00;;;31.50;99.90;;;;;;5043217;28;20018;-67
2022/12/02 07:32:24;;;;;;;22.00;11.82;;;31.40;99.90;;;;;;5044751;28;20047;-67
2022/12/02 07:34:53;;;;;;;21.90;9.30;;;31.40;99.90;;;;;;5046140;28;20030;-66
2022/12/02 07:37:20;;;;;;;12.73;8.25;;;31.40;99.90;;;;;;5047095;28;20016;-66
2022/12/02 07:39:46;;;;;;;16.98;10.82;;;31.40;99.90;;;;;;5047884;28;20359;-68
2022/12/02 07:42:13;;;;;;;65.47;37.33;;;31.30;99.90;;;;;;5046563;28;20032;-66
2022/12/02 07:44:40;;;;;;;49.75;24.23;;;31.40;99.90;;;;;;5032686;28;20041;-66
2022/12/02 07:47:07;;;;;;;16.92;9.65;;;31.40;99.90;;;;;;5043522;28;20624;-66
2022/12/02 07:49:33;;;;;;;14.40;8.63;;;31.40;99.90;;;;;;5047432;28;20119;-66
2022/12/02 07:52:00;;;;;;;18.70;9.95;;;31.40;99.90;;;;;;5039628;28;20040;-66
2022/12/02 07:54:26;;;;;;;24.52;13.05;;;31.40;99.90;;;;;;5035289;28;20037;-66
2022/12/02 07:56:53;;;;;;;35.67;18.02;;;31.40;99.90;;;;;;5041653;28;20108;-66
2022/12/02 07:59:19;;;;;;;28.75;13.70;;;31.40;99.90;;;;;;5042711;28;20017;-66
2022/12/02 08:01:46;;;;;;;36.97;15.38;;;31.50;99.90;;;;;;5041741;28;20056;-66
2022/12/02 08:04:13;;;;;;;11.55;6.50;;;31.50;99.90;;;;;;5043960;28;20048;-63
2022/12/02 08:06:39;;;;;;;9.63;5.38;;;31.50;99.90;;;;;;5042186;28;20421;-66
2022/12/02 08:09:06;;;;;;;246.38;134.32;;;31.50;99.90;;;;;;5045133;28;20064;-66
2022/12/02 08:11:33;;;;;;;19.27;6.45;;;31.50;99.90;;;;;;5046948;28;20469;-66
2022/12/02 08:13:59;;;;;;;13.13;4.90;;;31.50;99.90;;;;;;5047139;28;20049;-67
2022/12/02 08:16:26;;;;;;;13.93;4.80;;;31.50;99.90;;;;;;5045584;28;20561;-66
2022/12/02 08:18:53;;;;;;;14.63;9.35;;;31.50;99.90;;;;;;5039198;28;20045;-66
2022/12/02 08:21:19;;;;;;;9.73;5.60;;;31.50;99.90;;;;;;5044694;28;20024;-66
2022/12/02 08:23:46;;;;;;;10.23;4.25;;;31.50;99.90;;;;;;5044449;28;20013;-66
2022/12/02 08:26:12;;;;;;;9.30;3.88;;;31.40;99.90;;;;;;5043132;28;20540;-65
2022/12/02 08:28:39;;;;;;;13.57;3.90;;;31.40;99.90;;;;;;5043218;28;20497;-68
2022/12/02 08:31:05;;;;;;;5.82;4.13;;;31.40;99.90;;;;;;5044547;28;20033;-67
2022/12/02 08:33:32;;;;;;;9.15;5.40;;;31.40;99.90;;;;;;5043638;28;20100;-67
2022/12/02 08:35:58;;;;;;;10.52;6.90;;;31.40;99.90;;;;;;5048792;28;20048;-67
2022/12/02 08:38:25;;;;;;;29.73;10.93;;;31.40;99.90;;;;;;5044964;28;20017;-67
2022/12/02 08:40:51;;;;;;;15.95;8.55;;;31.50;99.90;;;;;;5041579;28;20398;-67
2022/12/02 08:43:18;;;;;;;12.18;7.45;;;31.50;99.90;;;;;;5045131;28;20021;-67
2022/12/02 08:45:44;;;;;;;10.25;6.25;;;31.50;99.90;;;;;;5044381;28;20025;-67
2022/12/02 08:48:11;;;;;;;19.00;9.95;;;31.40;99.90;;;;;;5047543;28;20140;-67
2022/12/02 08:50:38;;;;;;;16.70;8.93;;;31.50;99.90;;;;;;5046195;28;20025;-69
2022/12/02 08:53:05;;;;;;;8.85;4.63;;;31.50;99.90;;;;;;5044035;28;20047;-69
2022/12/02 08:55:31;;;;;;;9.18;4.78;;;31.50;99.90;;;;;;5048054;28;20032;-70
2022/12/02 08:57:58;;;;;;;9.18;5.55;;;31.50;99.90;;;;;;5048062;28;20025;-69
2022/12/02 09:00:24;;;;;;;8.15;6.18;;;31.40;99.90;;;;;;5049407;28;20040;-70
2022/12/02 09:02:51;;;;;;;13.00;8.23;;;31.40;99.90;;;;;;5045474;28;20025;-70
2022/12/02 09:05:17;;;;;;;12.82;8.48;;;31.40;99.90;;;;;;5050581;28;20025;-70
2022/12/02 09:07:44;;;;;;;16.85;10.05;;;31.40;99.90;;;;;;5045097;28;20359;-70
2022/12/02 09:10:12;;;;;;;10.70;6.80;;;31.40;99.90;;;;;;5048839;28;20102;-70
2022/12/02 09:12:39;;;;;;;17.85;7.05;;;31.40;99.90;;;;;;5047682;28;20377;-69
2022/12/02 09:15:07;;;;;;;18.80;7.65;;;31.40;99.90;;;;;;5051100;28;20135;-69
2022/12/02 09:17:34;;;;;;;18.92;8.68;;;31.40;99.90;;;;;;5048539;28;20025;-68
2022/12/02 09:20:00;;;;;;;24.98;10.82;;;31.40;99.90;;;;;;5051642;28;20117;-68
2022/12/02 09:22:27;;;;;;;18.85;9.10;;;31.40;99.90;;;;;;5048880;28;20017;-70
2022/12/02 09:24:54;;;;;;;14.07;8.13;;;31.40;99.90;;;;;;5050065;28;20025;-69
2022/12/02 09:27:20;;;;;;;30.50;15.95;;;31.40;99.90;;;;;;5047983;28;20027;-69
2022/12/02 09:29:47;;;;;;;18.73;10.38;;;31.30;99.90;;;;;;5046173;28;20017;-69
2022/12/02 09:32:13;;;;;;;21.30;11.93;;;31.30;99.90;;;;;;5048108;28;20112;-70
2022/12/02 09:34:40;;;;;;;20.50;11.35;;;31.20;99.90;;;;;;5047644;28;20018;-68
2022/12/02 09:39:35;;;;;;;20.33;11.45;;;31.00;99.90;;;;;;5044924;28;20049;-69
2022/12/02 09:42:02;;;;;;;49.35;26.48;;;30.90;99.90;;;;;;5049113;28;20373;-69
2022/12/02 09:44:29;;;;;;;39.17;17.58;;;30.80;99.90;;;;;;5047680;28;20013;-70
2022/12/02 09:46:56;;;;;;;29.30;9.52;;;30.10;99.90;;;;;;5048807;28;20017;-69
2022/12/02 09:49:23;;;;;;;20.23;6.82;;;29.40;99.90;;;;;;5044828;28;20013;-68
2022/12/02 09:51:51;;;;;;;51.38;17.45;;;28.60;99.90;;;;;;5046125;28;20052;-70
2022/12/02 09:54:18;;;;;;;49.13;14.80;;;28.00;99.90;;;;;;5047619;28;20028;-68
2022/12/02 09:56:44;;;;;;;17.55;6.07;;;27.40;99.90;;;;;;5046012;28;20036;-69
2022/12/02 09:59:15;;;;;;;25.13;6.07;;;26.90;99.90;;;;;;5046930;28;20465;-69
2022/12/02 10:01:45;;;;;;;17.40;5.30;;;26.80;99.90;;;;;;5046637;28;20079;-69
2022/12/02 10:04:16;;;;;;;40.25;17.00;;;26.70;99.90;;;;;;5047986;28;20021;-70
2022/12/02 10:06:44;;;;;;;35.75;22.80;;;26.70;99.90;;;;;;5048672;28;20018;-71
2022/12/02 10:09:20;;;;;;;11.18;6.07;;;26.80;99.90;;;;;;5044973;28;20429;-68
2022/12/02 10:11:46;;;;;;;7.82;3.55;;;26.70;99.90;;;;;;5047054;28;20043;-69
2022/12/02 10:14:14;;;;;;;14.93;5.80;;;26.80;99.90;;;;;;5052223;28;20029;-68
2022/12/02 10:16:41;;;;;;;11.27;4.35;;;26.90;99.90;;;;;;5047142;28;20033;-68
2022/12/02 10:19:15;;;;;;;12.95;5.50;;;27.00;99.90;;;;;;5047579;28;20120;-68
2022/12/02 10:21:41;;;;;;;21.27;8.00;;;27.20;99.90;;;;;;5045651;28;20098;-68
2022/12/02 10:24:12;;;;;;;24.80;10.30;;;27.30;99.90;;;;;;5044244;28;20089;-68
2022/12/02 10:26:45;;;;;;;29.27;16.40;;;27.30;99.90;;;;;;5045385;28;20075;-68
2022/12/02 10:29:17;;;;;;;50.13;23.73;;;27.40;99.90;;;;;;5046453;28;20074;-67
2022/12/02 10:31:46;;;;;;;;;;;27.50;99.90;;;;;;5048957;28;20501;-67
2022/12/02 10:34:20;;;;;;;40.47;22.33;;;27.60;99.90;;;;;;5044886;28;19908;-66
2022/12/02 10:36:47;;;;;;;41.60;22.90;;;27.50;99.90;;;;;;5044536;28;20033;-67
2022/12/02 10:39:16;;;;;;;40.10;21.90;;;27.60;99.90;;;;;;5046182;28;20025;-68
2022/12/02 10:41:43;;;;;;;32.08;20.40;;;27.70;99.90;;;;;;5046254;28;20022;-67
2022/12/02 10:44:13;;;;;;;30.33;16.95;;;27.90;99.90;;;;;;5044415;28;20030;-66
2022/12/02 10:46:40;;;;;;;33.33;15.35;;;27.70;99.90;;;;;;5051555;28;20027;-67
2022/12/02 10:49:27;;;;;;;30.40;15.85;;;27.60;99.90;;;;;;5051380;28;20068;-66
2022/12/02 10:51:57;;;;;;;36.80;19.35;;;27.50;99.90;;;;;;5036556;28;20505;-67
2022/12/02 10:54:27;;;;;;;32.05;16.20;;;27.70;99.90;;;;;;5054615;28;20477;-65
2022/12/02 10:56:55;;;;;;;30.35;13.52;;;27.60;99.90;;;;;;5047975;28;20128;-65
2022/12/02 10:59:23;;;;;;;32.25;12.80;;;27.60;99.90;;;;;;5046555;28;20029;-66
2022/12/02 11:01:49;;;;;;;25.17;13.60;;;27.50;99.90;;;;;;5046112;28;20020;-67
2022/12/02 11:04:16;;;;;;;22.90;13.38;;;27.40;99.90;;;;;;5044866;28;20014;-66
2022/12/02 11:06:44;;;;;;;19.45;13.02;;;27.20;99.90;;;;;;5043399;28;20052;-66
2022/12/02 11:09:25;;;;;;;22.38;13.57;;;27.10;99.90;;;;;;5045849;28;20390;-66
2022/12/02 11:11:52;;;;;;;24.80;12.30;;;27.00;99.90;;;;;;5044051;28;20029;-66
2022/12/02 11:14:38;;;;;;;49.47;36.25;;;27.20;99.90;;;;;;5044809;28;20025;-67
2022/12/02 11:17:10;;;;;;;68.18;49.67;;;27.10;99.90;;;;;;4984928;28;20038;-66
2022/12/02 11:19:37;;;;;;;52.97;35.25;;;27.30;99.90;;;;;;5044084;28;20493;-66
2022/12/02 11:22:24;;;;;;;76.47;53.03;;;27.20;99.90;;;;;;5045083;28;20040;-66
2022/12/02 11:24:50;;;;;;;26.05;19.10;;;27.10;99.90;;;;;;5065236;22;20084;-66
2022/12/02 11:27:17;;;;;;;73.82;49.83;;;27.20;99.90;;;;;;5043155;28;20150;-66
2022/12/02 11:30:05;;;;;;;64.63;42.63;;;27.20;99.90;;;;;;5043325;28;20159;-66
2022/12/02 11:32:35;;;;;;;47.13;33.10;;;27.40;99.90;;;;;;5044876;28;20029;-65
2022/12/02 11:35:02;;;;;;;47.88;31.63;;;27.40;99.90;;;;;;5043335;28;20014;-66
2022/12/02 11:37:32;;;;;;;47.90;31.33;;;27.40;99.90;;;;;;5044387;28;20025;-66
2022/12/02 11:40:05;;;;;;;27.90;18.42;;;27.30;99.90;;;;;;5046750;28;20047;-66
2022/12/02 11:42:34;;;;;;;45.22;27.30;;;27.40;99.90;;;;;;5051628;28;20473;-71
2022/12/02 11:45:06;;;;;;;18.08;9.90;;;27.50;99.90;;;;;;5050501;28;20051;-62
2022/12/02 11:47:33;;;;;;;21.42;10.15;;;27.50;99.90;;;;;;5044807;28;20382;-65
2022/12/02 11:50:14;;;;;;;20.30;9.65;;;27.50;99.90;;;;;;5045446;28;20404;-66
2022/12/02 11:52:49;;;;;;;17.83;10.18;;;27.60;99.90;;;;;;5044524;28;20064;-70
2022/12/02 11:55:21;;;;;;;19.40;10.18;;;27.60;99.90;;;;;;5052116;28;20458;-67
2022/12/02 11:57:53;;;;;;;18.75;9.43;;;27.60;99.90;;;;;;5045330;28;20032;-69
2022/12/02 12:00:22;;;;;;;19.80;10.70;;;27.70;99.90;;;;;;5044696;28;20035;-68
2022/12/02 12:02:54;;;;;;;18.55;10.48;;;27.60;99.90;;;;;;5046755;28;20103;-66
2022/12/02 12:05:21;;;;;;;17.42;11.05;;;27.70;99.90;;;;;;5049505;28;20017;-69
2022/12/02 12:07:49;;;;;;;16.02;8.70;;;27.60;99.90;;;;;;5042089;28;20469;-68
2022/12/02 12:10:21;;;;;;;17.83;10.75;;;27.50;99.90;;;;;;5043185;28;20068;-70
2022/12/02 12:12:52;;;;;;;21.77;9.15;;;27.50;99.90;;;;;;5044068;28;20024;-70
2022/12/02 12:15:19;;;;;;;16.77;8.18;;;27.50;99.90;;;;;;5047141;28;20033;-70
2022/12/02 12:17:45;;;;;;;19.77;7.93;;;27.50;99.90;;;;;;5044219;28;20029;-71
2022/12/02 12:20:13;;;;;;;18.20;12.48;;;27.50;99.90;;;;;;5041239;28;20044;-68
2022/12/02 12:22:40;;;;;;;24.67;16.30;;;27.40;99.90;;;;;;5042397;28;20025;-67
2022/12/02 12:25:12;;;;;;;51.13;32.28;;;27.40;99.90;;;;;;5037935;28;20485;-66
2022/12/02 12:27:38;;;;;;;17.63;10.68;;;27.50;99.90;;;;;;5042088;28;20128;-67
2022/12/02 12:30:06;;;;;;;20.70;8.65;;;27.50;99.90;;;;;;5030012;28;20034;-66
2022/12/02 12:32:32;;;;;;;18.35;9.63;;;27.40;99.90;;;;;;5030301;28;20036;-69
2022/12/02 12:34:59;;;;;;;30.17;15.10;;;27.30;99.90;;;;;;5032669;28;20022;-67
2022/12/02 12:37:25;;;;;;;20.90;9.65;;;27.40;99.90;;;;;;5031825;28;20076;-66
2022/12/02 12:39:52;;;;;;;74.40;55.30;;;27.40;99.90;;;;;;5032635;28;20538;-67
2022/12/02 12:42:18;;;;;;;103.97;81.03;;;27.40;99.90;;;;;;5030386;28;20113;-66
2022/12/02 12:44:45;;;;;;;23.73;12.77;;;27.50;99.90;;;;;;5032397;28;20009;-66
2022/12/02 12:47:11;;;;;;;14.60;8.38;;;27.50;99.90;;;;;;5031802;28;20026;-66
2022/12/02 12:49:38;;;;;;;30.63;12.80;;;27.50;99.90;;;;;;5033213;28;20014;-65
2022/12/02 12:52:04;;;;;;;22.83;13.27;;;27.50;99.90;;;;;;5043859;28;20025;-67
2022/12/02 12:54:31;;;;;;;32.58;19.52;;;27.50;99.90;;;;;;5041040;28;20037;-65
2022/12/02 12:56:58;;;;;;;16.90;10.43;;;27.60;99.90;;;;;;5034241;28;20501;-66